sensor_id;sensor_type;location;lat;lon;timestamp;pressure;altitude;pressure_sealevel;temperature;humidity
11487;BME280;10510;47.942;9.442;2022-07-29T00:01:04;94573.53;;;16.94;100.00
11487;BME280;10510;47.942;9.442;2022-07-29T00:03:04;94573.72;;;16.93;100.00
11487;BME280;10510;47.942;9.442;2022-07-29T00:05:05;94567.06;;;16.90;100.00
11487;BME280;10510;47.942;9.442;2022-07-29T00:07:05;94574.38;;;16.88;100.00
11487;BME280;10510;47.942;9.442;2022-07-29T00:09:06;94582.53;;;16.87;100.00
11487;BME280;10510;47.942;9.442;2022-07-29T00:11:06;94581.75;;;16.86;100.00
11487;BME280;10510;47.942;9.442;2022-07-29T00:13:07;94581.50;;;16.88;100.00
11487;BME280;10510;47.942;9.442;2022-07-29T00:15:08;94585.19;;;16.87;100.00
11487;BME280;10510;47.942;9.442;2022-07-29T00:17:08;94576.22;;;16.88;100.00
11487;BME280;10510;47.942;9.442;2022-07-29T00:19:09;94570.75;;;16.89;100.00
11487;BME280;10510;47.942;9.442;2022-07-29T00:21:09;94569.94;;;16.89;100.00
11487;BME280;10510;47.942;9.442;2022-07-29T00:23:09;94564.06;;;16.87;100.00
11487;BME280;10510;47.942;9.442;2022-07-29T00:25:11;94565.09;;;16.86;100.00
11487;BME280;10510;47.942;9.442;2022-07-29T00:27:12;94569.34;;;16.87;100.00
11487;BME280;10510;47.942;9.442;2022-07-29T00:29:12;94559.59;;;16.87;100.00
11487;BME280;10510;47.942;9.442;2022-07-29T00:31:12;94564.53;;;16.84;100.00
11487;BME280;10510;47.942;9.442;2022-07-29T00:33:12;94556.25;;;16.80;100.00
11487;BME280;10510;47.942;9.442;2022-07-29T00:35:13;94560.13;;;16.77;100.00
11487;BME280;10510;47.942;9.442;2022-07-29T00:37:31;94569.47;;;16.73;100.00
11487;BME280;10510;47.942;9.442;2022-07-29T00:39:32;94562.59;;;16.72;100.00
11487;BME280;10510;47.942;9.442;2022-07-29T00:41:32;94563.84;;;16.70;100.00
11487;BME280;10510;47.942;9.442;2022-07-29T00:43:32;94568.56;;;16.68;100.00
11487;BME280;10510;47.942;9.442;2022-07-29T00:45:32;94568.19;;;16.64;100.00
11487;BME280;10510;47.942;9.442;2022-07-29T00:47:33;94570.81;;;16.64;100.00
11487;BME280;10510;47.942;9.442;2022-07-29T00:49:34;94560.72;;;16.61;100.00
11487;BME280;10510;47.942;9.442;2022-07-29T00:51:37;94554.41;;;16.62;100.00
11487;BME280;10510;47.942;9.442;2022-07-29T00:53:38;94551.19;;;16.60;100.00
11487;BME280;10510;47.942;9.442;2022-07-29T00:55:38;94551.03;;;16.55;100.00
11487;BME280;10510;47.942;9.442;2022-07-29T00:57:40;94552.53;;;16.51;100.00
11487;BME280;10510;47.942;9.442;2022-07-29T00:59:40;94553.78;;;16.48;100.00
11487;BME280;10510;47.942;9.442;2022-07-29T01:01:41;94552.97;;;16.48;100.00
11487;BME280;10510;47.942;9.442;2022-07-29T01:03:41;94548.13;;;16.45;100.00
11487;BME280;10510;47.942;9.442;2022-07-29T01:05:43;94540.22;;;16.45;100.00
11487;BME280;10510;47.942;9.442;2022-07-29T01:07:46;94544.72;;;16.44;100.00
11487;BME280;10510;47.942;9.442;2022-07-29T01:09:47;94544.03;;;16.49;100.00
11487;BME280;10510;47.942;9.442;2022-07-29T01:11:47;94543.13;;;16.55;100.00
11487;BME280;10510;47.942;9.442;2022-07-29T01:13:48;94545.22;;;16.65;100.00
11487;BME280;10510;47.942;9.442;2022-07-29T01:15:53;94529.34;;;16.71;100.00
11487;BME280;10510;47.942;9.442;2022-07-29T01:18:01;94535.59;;;16.77;100.00
11487;BME280;10510;47.942;9.442;2022-07-29T01:22:37;94525.03;;;16.77;100.00
11487;BME280;10510;47.942;9.442;2022-07-29T01:27:32;94519.00;;;16.70;100.00
11487;BME280;10510;47.942;9.442;2022-07-29T01:29:44;94522.88;;;16.67;100.00
11487;BME280;10510;47.942;9.442;2022-07-29T01:31:51;94524.13;;;16.65;100.00
11487;BME280;10510;47.942;9.442;2022-07-29T01:34:08;94523.56;;;16.63;100.00
11487;BME280;10510;47.942;9.442;2022-07-29T01:36:13;94521.72;;;16.63;100.00
11487;BME280;10510;47.942;9.442;2022-07-29T01:38:20;94522.31;;;16.65;100.00
11487;BME280;10510;47.942;9.442;2022-07-29T01:40:29;94523.72;;;16.68;100.00
11487;BME280;10510;47.942;9.442;2022-07-29T01:42:35;94519.78;;;16.70;100.00
11487;BME280;10510;47.942;9.442;2022-07-29T01:44:53;94524.41;;;16.75;100.00
11487;BME280;10510;47.942;9.442;2022-07-29T01:46:56;94515.50;;;16.76;100.00
11487;BME280;10510;47.942;9.442;2022-07-29T01:49:04;94503.75;;;16.72;100.00
11487;BME280;10510;47.942;9.442;2022-07-29T01:51:14;94510.88;;;16.71;100.00
11487;BME280;10510;47.942;9.442;2022-07-29T01:53:23;94503.50;;;16.73;100.00
11487;BME280;10510;47.942;9.442;2022-07-29T01:55:28;94508.59;;;16.75;100.00
11487;BME280;10510;47.942;9.442;2022-07-29T01:57:31;94507.78;;;16.74;100.00
11487;BME280;10510;47.942;9.442;2022-07-29T01:59:34;94510.00;;;16.77;100.00
11487;BME280;10510;47.942;9.442;2022-07-29T02:01:37;94507.34;;;16.77;100.00
11487;BME280;10510;47.942;9.442;2022-07-29T02:03:42;94510.00;;;16.77;100.00
11487;BME280;10510;47.942;9.442;2022-07-29T02:05:46;94499.19;;;16.79;100.00
11487;BME280;10510;47.942;9.442;2022-07-29T02:07:49;94501.63;;;16.80;100.00
11487;BME280;10510;47.942;9.442;2022-07-29T02:09:51;94500.59;;;16.82;100.00
11487;BME280;10510;47.942;9.442;2022-07-29T02:11:54;94496.13;;;16.82;100.00
11487;BME280;10510;47.942;9.442;2022-07-29T02:13:56;94504.88;;;16.83;100.00
11487;BME280;10510;47.942;9.442;2022-07-29T02:15:58;94497.41;;;16.79;100.00
11487;BME280;10510;47.942;9.442;2022-07-29T02:18:18;94500.66;;;16.75;100.00
11487;BME280;10510;47.942;9.442;2022-07-29T02:20:22;94495.19;;;16.76;100.00
11487;BME280;10510;47.942;9.442;2022-07-29T02:22:24;94496.81;;;16.77;100.00
11487;BME280;10510;47.942;9.442;2022-07-29T02:24:27;94491.09;;;16.80;100.00
11487;BME280;10510;47.942;9.442;2022-07-29T02:26:30;94491.66;;;16.83;100.00
11487;BME280;10510;47.942;9.442;2022-07-29T02:28:32;94502.22;;;16.83;100.00
11487;BME280;10510;47.942;9.442;2022-07-29T02:30:36;94500.84;;;16.80;100.00
11487;BME280;10510;47.942;9.442;2022-07-29T02:32:41;94486.28;;;16.59;100.00
11487;BME280;10510;47.942;9.442;2022-07-29T02:34:42;94480.22;;;16.40;100.00
11487;BME280;10510;47.942;9.442;2022-07-29T02:36:44;94491.31;;;16.30;100.00
11487;BME280;10510;47.942;9.442;2022-07-29T02:38:45;94493.00;;;16.25;100.00
11487;BME280;10510;47.942;9.442;2022-07-29T02:40:53;94492.06;;;16.19;100.00
11487;BME280;10510;47.942;9.442;2022-07-29T02:42:55;94494.41;;;16.09;100.00
11487;BME280;10510;47.942;9.442;2022-07-29T02:44:55;94491.84;;;16.02;100.00
11487;BME280;10510;47.942;9.442;2022-07-29T02:47:04;94489.88;;;15.98;100.00
11487;BME280;10510;47.942;9.442;2022-07-29T02:51:23;94493.97;;;15.94;100.00
11487;BME280;10510;47.942;9.442;2022-07-29T02:53:26;94489.06;;;15.97;100.00
11487;BME280;10510;47.942;9.442;2022-07-29T02:55:43;94486.28;;;15.92;100.00
11487;BME280;10510;47.942;9.442;2022-07-29T02:57:55;94491.41;;;15.87;100.00
11487;BME280;10510;47.942;9.442;2022-07-29T03:00:00;94491.63;;;15.85;100.00
11487;BME280;10510;47.942;9.442;2022-07-29T03:02:04;94493.06;;;15.81;100.00
11487;BME280;10510;47.942;9.442;2022-07-29T03:04:07;94485.25;;;15.75;100.00
11487;BME280;10510;47.942;9.442;2022-07-29T03:06:11;94500.69;;;15.71;100.00
11487;BME280;10510;47.942;9.442;2022-07-29T03:08:12;94495.66;;;15.63;100.00
11487;BME280;10510;47.942;9.442;2022-07-29T03:10:14;94493.91;;;15.57;100.00
11487;BME280;10510;47.942;9.442;2022-07-29T03:12:15;94499.63;;;15.54;100.00
11487;BME280;10510;47.942;9.442;2022-07-29T03:14:17;94494.78;;;15.51;100.00
11487;BME280;10510;47.942;9.442;2022-07-29T03:16:19;94490.50;;;15.50;100.00
11487;BME280;10510;47.942;9.442;2022-07-29T03:18:20;94494.97;;;15.49;100.00
11487;BME280;10510;47.942;9.442;2022-07-29T03:20:21;94495.25;;;15.41;100.00
11487;BME280;10510;47.942;9.442;2022-07-29T03:22:21;94499.19;;;15.32;100.00
11487;BME280;10510;47.942;9.442;2022-07-29T03:26:30;94494.25;;;15.17;100.00
11487;BME280;10510;47.942;9.442;2022-07-29T03:28:30;94496.13;;;15.10;100.00
11487;BME280;10510;47.942;9.442;2022-07-29T03:30:30;94488.28;;;15.03;100.00
11487;BME280;10510;47.942;9.442;2022-07-29T03:32:31;94482.63;;;14.99;100.00
11487;BME280;10510;47.942;9.442;2022-07-29T03:34:31;94481.88;;;14.92;100.00
11487;BME280;10510;47.942;9.442;2022-07-29T03:36:31;94479.50;;;14.84;100.00
11487;BME280;10510;47.942;9.442;2022-07-29T03:38:33;94479.94;;;14.81;100.00
11487;BME280;10510;47.942;9.442;2022-07-29T03:40:42;94485.38;;;14.86;100.00
11487;BME280;10510;47.942;9.442;2022-07-29T03:42:43;94489.19;;;14.90;100.00
11487;BME280;10510;47.942;9.442;2022-07-29T03:44:47;94488.19;;;14.91;100.00
11487;BME280;10510;47.942;9.442;2022-07-29T03:46:50;94484.53;;;14.92;100.00
11487;BME280;10510;47.942;9.442;2022-07-29T03:48:55;94486.13;;;14.93;100.00
11487;BME280;10510;47.942;9.442;2022-07-29T03:50:58;94490.75;;;14.98;100.00
11487;BME280;10510;47.942;9.442;2022-07-29T03:52:59;94486.50;;;14.97;100.00
11487;BME280;10510;47.942;9.442;2022-07-29T03:54:59;94490.59;;;14.93;100.00
11487;BME280;10510;47.942;9.442;2022-07-29T03:57:03;94497.50;;;14.87;100.00
11487;BME280;10510;47.942;9.442;2022-07-29T03:59:06;94501.16;;;14.86;100.00
11487;BME280;10510;47.942;9.442;2022-07-29T04:01:07;94499.94;;;14.89;100.00
11487;BME280;10510;47.942;9.442;2022-07-29T04:03:08;94489.78;;;14.92;100.00
11487;BME280;10510;47.942;9.442;2022-07-29T04:05:12;94496.22;;;14.96;100.00
11487;BME280;10510;47.942;9.442;2022-07-29T04:07:14;94492.16;;;15.01;100.00
11487;BME280;10510;47.942;9.442;2022-07-29T04:09:14;94499.19;;;15.07;100.00
11487;BME280;10510;47.942;9.442;2022-07-29T04:11:14;94498.78;;;15.10;100.00
11487;BME280;10510;47.942;9.442;2022-07-29T04:13:15;94489.41;;;15.14;100.00
11487;BME280;10510;47.942;9.442;2022-07-29T04:15:15;94492.59;;;15.22;100.00
11487;BME280;10510;47.942;9.442;2022-07-29T04:17:15;94492.53;;;15.29;100.00
11487;BME280;10510;47.942;9.442;2022-07-29T04:19:16;94494.53;;;15.34;100.00
11487;BME280;10510;47.942;9.442;2022-07-29T04:21:16;94488.19;;;15.41;100.00
11487;BME280;10510;47.942;9.442;2022-07-29T04:23:16;94493.75;;;15.52;100.00
11487;BME280;10510;47.942;9.442;2022-07-29T04:25:17;94492.66;;;15.59;100.00
11487;BME280;10510;47.942;9.442;2022-07-29T04:27:17;94493.22;;;15.68;100.00
11487;BME280;10510;47.942;9.442;2022-07-29T04:29:17;94501.84;;;15.75;100.00
11487;BME280;10510;47.942;9.442;2022-07-29T04:31:17;94500.78;;;15.83;100.00
11487;BME280;10510;47.942;9.442;2022-07-29T04:33:18;94501.28;;;15.92;100.00
11487;BME280;10510;47.942;9.442;2022-07-29T04:35:19;94509.13;;;15.98;100.00
11487;BME280;10510;47.942;9.442;2022-07-29T04:37:19;94515.91;;;16.06;100.00
11487;BME280;10510;47.942;9.442;2022-07-29T04:39:20;94511.22;;;16.08;100.00
11487;BME280;10510;47.942;9.442;2022-07-29T04:41:20;94516.94;;;16.05;100.00
11487;BME280;10510;47.942;9.442;2022-07-29T04:43:20;94514.56;;;16.03;100.00
11487;BME280;10510;47.942;9.442;2022-07-29T04:45:21;94508.00;;;16.06;100.00
11487;BME280;10510;47.942;9.442;2022-07-29T04:47:21;94503.91;;;16.10;100.00
11487;BME280;10510;47.942;9.442;2022-07-29T04:49:21;94500.03;;;16.12;100.00
11487;BME280;10510;47.942;9.442;2022-07-29T04:51:22;94502.59;;;16.19;100.00
11487;BME280;10510;47.942;9.442;2022-07-29T04:53:22;94505.50;;;16.29;100.00
11487;BME280;10510;47.942;9.442;2022-07-29T04:55:23;94509.31;;;16.33;100.00
11487;BME280;10510;47.942;9.442;2022-07-29T04:57:23;94503.38;;;16.38;100.00
11487;BME280;10510;47.942;9.442;2022-07-29T04:59:23;94502.28;;;16.46;100.00
11487;BME280;10510;47.942;9.442;2022-07-29T05:01:24;94501.97;;;16.54;100.00
11487;BME280;10510;47.942;9.442;2022-07-29T05:03:25;94511.19;;;16.63;100.00
11487;BME280;10510;47.942;9.442;2022-07-29T05:05:25;94508.78;;;16.73;100.00
11487;BME280;10510;47.942;9.442;2022-07-29T05:07:25;94511.59;;;16.78;100.00
11487;BME280;10510;47.942;9.442;2022-07-29T05:09:26;94521.03;;;16.86;100.00
11487;BME280;10510;47.942;9.442;2022-07-29T05:11:26;94519.34;;;16.92;100.00
11487;BME280;10510;47.942;9.442;2022-07-29T05:13:26;94522.91;;;16.97;100.00
11487;BME280;10510;47.942;9.442;2022-07-29T05:15:27;94506.38;;;17.02;100.00
11487;BME280;10510;47.942;9.442;2022-07-29T05:17:27;94514.19;;;17.09;100.00
11487;BME280;10510;47.942;9.442;2022-07-29T05:19:27;94511.56;;;17.09;100.00
11487;BME280;10510;47.942;9.442;2022-07-29T05:21:27;94515.59;;;17.11;100.00
11487;BME280;10510;47.942;9.442;2022-07-29T05:23:28;94517.78;;;17.14;100.00
11487;BME280;10510;47.942;9.442;2022-07-29T05:25:29;94521.25;;;17.15;100.00
11487;BME280;10510;47.942;9.442;2022-07-29T05:27:29;94514.69;;;17.17;100.00
11487;BME280;10510;47.942;9.442;2022-07-29T05:29:29;94508.16;;;17.20;100.00
11487;BME280;10510;47.942;9.442;2022-07-29T05:31:30;94513.34;;;17.27;100.00
11487;BME280;10510;47.942;9.442;2022-07-29T05:33:30;94513.22;;;17.33;100.00
11487;BME280;10510;47.942;9.442;2022-07-29T05:35:30;94517.72;;;17.33;100.00
11487;BME280;10510;47.942;9.442;2022-07-29T05:37:30;94525.19;;;17.36;100.00
11487;BME280;10510;47.942;9.442;2022-07-29T05:39:31;94526.56;;;17.38;100.00
11487;BME280;10510;47.942;9.442;2022-07-29T05:41:32;94519.66;;;17.37;100.00
11487;BME280;10510;47.942;9.442;2022-07-29T05:43:32;94518.63;;;17.38;100.00
11487;BME280;10510;47.942;9.442;2022-07-29T05:45:33;94525.88;;;17.43;100.00
11487;BME280;10510;47.942;9.442;2022-07-29T05:47:33;94529.66;;;17.47;100.00
11487;BME280;10510;47.942;9.442;2022-07-29T05:49:34;94527.38;;;17.51;100.00
11487;BME280;10510;47.942;9.442;2022-07-29T05:51:34;94534.84;;;17.54;100.00
11487;BME280;10510;47.942;9.442;2022-07-29T05:53:34;94529.91;;;17.57;100.00
11487;BME280;10510;47.942;9.442;2022-07-29T05:55:35;94533.13;;;17.59;100.00
11487;BME280;10510;47.942;9.442;2022-07-29T05:57:35;94535.31;;;17.62;100.00
11487;BME280;10510;47.942;9.442;2022-07-29T05:59:36;94537.72;;;17.64;100.00
11487;BME280;10510;47.942;9.442;2022-07-29T06:01:37;94538.63;;;17.69;100.00
11487;BME280;10510;47.942;9.442;2022-07-29T06:03:39;94535.78;;;17.71;100.00
11487;BME280;10510;47.942;9.442;2022-07-29T06:05:41;94538.75;;;17.75;100.00
11487;BME280;10510;47.942;9.442;2022-07-29T06:07:41;94534.06;;;17.77;100.00
11487;BME280;10510;47.942;9.442;2022-07-29T06:09:42;94537.88;;;17.81;100.00
11487;BME280;10510;47.942;9.442;2022-07-29T06:11:42;94545.91;;;17.86;100.00
11487;BME280;10510;47.942;9.442;2022-07-29T06:13:42;94542.91;;;17.94;100.00
11487;BME280;10510;47.942;9.442;2022-07-29T06:15:43;94548.31;;;17.99;100.00
11487;BME280;10510;47.942;9.442;2022-07-29T06:17:44;94538.91;;;18.03;100.00
11487;BME280;10510;47.942;9.442;2022-07-29T06:19:44;94548.28;;;18.11;100.00
11487;BME280;10510;47.942;9.442;2022-07-29T06:21:45;94554.16;;;18.13;100.00
11487;BME280;10510;47.942;9.442;2022-07-29T06:23:46;94554.28;;;18.18;100.00
11487;BME280;10510;47.942;9.442;2022-07-29T06:25:46;94547.00;;;18.25;100.00
11487;BME280;10510;47.942;9.442;2022-07-29T06:27:47;94549.78;;;18.30;100.00
11487;BME280;10510;47.942;9.442;2022-07-29T06:29:47;94549.88;;;18.35;100.00
11487;BME280;10510;47.942;9.442;2022-07-29T06:31:47;94545.84;;;18.45;100.00
11487;BME280;10510;47.942;9.442;2022-07-29T06:33:47;94546.81;;;18.55;100.00
11487;BME280;10510;47.942;9.442;2022-07-29T06:35:48;94545.88;;;18.61;100.00
11487;BME280;10510;47.942;9.442;2022-07-29T06:37:49;94548.41;;;18.68;100.00
11487;BME280;10510;47.942;9.442;2022-07-29T06:39:49;94544.38;;;18.77;100.00
11487;BME280;10510;47.942;9.442;2022-07-29T06:42:09;94545.28;;;18.83;100.00
11487;BME280;10510;47.942;9.442;2022-07-29T06:44:10;94550.44;;;18.90;100.00
11487;BME280;10510;47.942;9.442;2022-07-29T06:46:13;94549.47;;;18.96;100.00
11487;BME280;10510;47.942;9.442;2022-07-29T06:48:13;94555.41;;;19.03;100.00
11487;BME280;10510;47.942;9.442;2022-07-29T06:50:14;94559.06;;;19.14;100.00
11487;BME280;10510;47.942;9.442;2022-07-29T06:52:15;94561.66;;;19.25;100.00
11487;BME280;10510;47.942;9.442;2022-07-29T06:54:15;94565.75;;;19.33;100.00
11487;BME280;10510;47.942;9.442;2022-07-29T06:56:15;94560.53;;;19.38;100.00
11487;BME280;10510;47.942;9.442;2022-07-29T06:58:16;94561.19;;;19.45;100.00
11487;BME280;10510;47.942;9.442;2022-07-29T07:00:18;94557.09;;;19.55;100.00
11487;BME280;10510;47.942;9.442;2022-07-29T07:02:18;94554.28;;;19.61;100.00
11487;BME280;10510;47.942;9.442;2022-07-29T07:04:18;94554.66;;;19.65;100.00
11487;BME280;10510;47.942;9.442;2022-07-29T07:06:18;94561.22;;;19.79;100.00
11487;BME280;10510;47.942;9.442;2022-07-29T07:08:20;94565.09;;;19.88;100.00
11487;BME280;10510;47.942;9.442;2022-07-29T07:10:21;94571.31;;;19.99;100.00
11487;BME280;10510;47.942;9.442;2022-07-29T07:12:22;94572.91;;;20.17;100.00
11487;BME280;10510;47.942;9.442;2022-07-29T07:14:22;94569.41;;;20.33;100.00
11487;BME280;10510;47.942;9.442;2022-07-29T07:16:22;94576.88;;;20.53;100.00
11487;BME280;10510;47.942;9.442;2022-07-29T07:18:22;94572.78;;;20.68;100.00
11487;BME280;10510;47.942;9.442;2022-07-29T07:20:24;94577.50;;;20.82;100.00
11487;BME280;10510;47.942;9.442;2022-07-29T07:22:25;94587.66;;;20.91;100.00
11487;BME280;10510;47.942;9.442;2022-07-29T07:24:25;94587.00;;;21.05;100.00
11487;BME280;10510;47.942;9.442;2022-07-29T07:26:25;94591.94;;;21.19;100.00
11487;BME280;10510;47.942;9.442;2022-07-29T07:28:26;94583.88;;;21.36;100.00
11487;BME280;10510;47.942;9.442;2022-07-29T07:30:26;94577.09;;;21.50;100.00
11487;BME280;10510;47.942;9.442;2022-07-29T07:32:27;94581.50;;;21.66;100.00
11487;BME280;10510;47.942;9.442;2022-07-29T07:34:27;94588.06;;;21.86;100.00
11487;BME280;10510;47.942;9.442;2022-07-29T07:36:28;94593.88;;;21.83;100.00
11487;BME280;10510;47.942;9.442;2022-07-29T07:38:28;94589.16;;;21.90;100.00
11487;BME280;10510;47.942;9.442;2022-07-29T07:40:29;94583.09;;;21.99;100.00
11487;BME280;10510;47.942;9.442;2022-07-29T07:42:29;94587.13;;;22.07;100.00
11487;BME280;10510;47.942;9.442;2022-07-29T07:44:29;94580.28;;;22.16;100.00
11487;BME280;10510;47.942;9.442;2022-07-29T07:46:30;94577.69;;;22.21;100.00
11487;BME280;10510;47.942;9.442;2022-07-29T07:48:30;94577.06;;;22.14;100.00
11487;BME280;10510;47.942;9.442;2022-07-29T07:50:30;94581.25;;;22.05;100.00
11487;BME280;10510;47.942;9.442;2022-07-29T07:52:31;94582.88;;;22.06;100.00
11487;BME280;10510;47.942;9.442;2022-07-29T07:54:32;94591.63;;;22.02;100.00
11487;BME280;10510;47.942;9.442;2022-07-29T07:56:32;94592.69;;;22.06;100.00
11487;BME280;10510;47.942;9.442;2022-07-29T07:58:33;94589.31;;;22.15;100.00
11487;BME280;10510;47.942;9.442;2022-07-29T08:00:34;94585.16;;;22.25;100.00
11487;BME280;10510;47.942;9.442;2022-07-29T08:02:35;94581.47;;;22.31;100.00
11487;BME280;10510;47.942;9.442;2022-07-29T08:04:35;94583.09;;;22.37;100.00
11487;BME280;10510;47.942;9.442;2022-07-29T08:06:36;94595.59;;;22.36;100.00
11487;BME280;10510;47.942;9.442;2022-07-29T08:08:36;94586.53;;;22.37;100.00
11487;BME280;10510;47.942;9.442;2022-07-29T08:10:37;94585.31;;;22.55;100.00
11487;BME280;10510;47.942;9.442;2022-07-29T08:12:52;94588.84;;;22.76;100.00
11487;BME280;10510;47.942;9.442;2022-07-29T08:14:52;94594.78;;;22.94;100.00
11487;BME280;10510;47.942;9.442;2022-07-29T08:16:54;94598.34;;;23.09;100.00
11487;BME280;10510;47.942;9.442;2022-07-29T08:18:54;94597.09;;;23.58;100.00
11487;BME280;10510;47.942;9.442;2022-07-29T08:20:57;94589.38;;;24.08;100.00
11487;BME280;10510;47.942;9.442;2022-07-29T08:22:57;94601.34;;;24.41;100.00
11487;BME280;10510;47.942;9.442;2022-07-29T08:24:58;94603.69;;;24.73;100.00
11487;BME280;10510;47.942;9.442;2022-07-29T08:26:58;94598.81;;;24.96;100.00
11487;BME280;10510;47.942;9.442;2022-07-29T08:28:58;94600.03;;;25.24;100.00
11487;BME280;10510;47.942;9.442;2022-07-29T08:30:58;94593.81;;;25.33;100.00
11487;BME280;10510;47.942;9.442;2022-07-29T08:32:59;94601.19;;;25.52;100.00
11487;BME280;10510;47.942;9.442;2022-07-29T08:34:59;94596.78;;;25.71;100.00
11487;BME280;10510;47.942;9.442;2022-07-29T08:37:00;94603.69;;;25.77;100.00
11487;BME280;10510;47.942;9.442;2022-07-29T08:39:02;94599.84;;;26.23;100.00
11487;BME280;10510;47.942;9.442;2022-07-29T08:41:03;94598.16;;;26.61;100.00
11487;BME280;10510;47.942;9.442;2022-07-29T08:43:07;94607.69;;;26.72;100.00
11487;BME280;10510;47.942;9.442;2022-07-29T08:45:08;94604.09;;;26.58;100.00
11487;BME280;10510;47.942;9.442;2022-07-29T08:47:09;94605.63;;;26.64;100.00
11487;BME280;10510;47.942;9.442;2022-07-29T08:49:09;94615.59;;;26.59;100.00
11487;BME280;10510;47.942;9.442;2022-07-29T08:51:14;94618.91;;;26.21;100.00
11487;BME280;10510;47.942;9.442;2022-07-29T08:53:16;94614.97;;;26.09;100.00
11487;BME280;10510;47.942;9.442;2022-07-29T08:55:17;94610.88;;;26.21;100.00
11487;BME280;10510;47.942;9.442;2022-07-29T08:57:19;94617.25;;;26.25;100.00
11487;BME280;10510;47.942;9.442;2022-07-29T08:59:22;94609.50;;;25.95;100.00
11487;BME280;10510;47.942;9.442;2022-07-29T09:01:27;94611.41;;;25.89;100.00
11487;BME280;10510;47.942;9.442;2022-07-29T09:03:31;94612.34;;;25.64;100.00
11487;BME280;10510;47.942;9.442;2022-07-29T09:05:34;94606.00;;;25.55;100.00
11487;BME280;10510;47.942;9.442;2022-07-29T09:07:35;94604.16;;;25.50;100.00
11487;BME280;10510;47.942;9.442;2022-07-29T09:09:36;94608.22;;;25.43;100.00
11487;BME280;10510;47.942;9.442;2022-07-29T09:11:38;94605.00;;;25.41;100.00
11487;BME280;10510;47.942;9.442;2022-07-29T09:13:38;94603.41;;;25.40;100.00
11487;BME280;10510;47.942;9.442;2022-07-29T09:15:38;94613.34;;;25.34;100.00
11487;BME280;10510;47.942;9.442;2022-07-29T09:17:44;94604.53;;;25.33;100.00
11487;BME280;10510;47.942;9.442;2022-07-29T09:19:44;94602.91;;;25.32;100.00
11487;BME280;10510;47.942;9.442;2022-07-29T09:21:44;94604.84;;;25.22;100.00
11487;BME280;10510;47.942;9.442;2022-07-29T09:24:06;94600.38;;;25.02;100.00
11487;BME280;10510;47.942;9.442;2022-07-29T09:26:07;94606.63;;;24.77;100.00
11487;BME280;10510;47.942;9.442;2022-07-29T09:28:12;94606.66;;;24.61;100.00
11487;BME280;10510;47.942;9.442;2022-07-29T09:30:13;94608.31;;;24.42;100.00
11487;BME280;10510;47.942;9.442;2022-07-29T09:32:14;94610.75;;;24.18;100.00
11487;BME280;10510;47.942;9.442;2022-07-29T09:34:16;94608.88;;;23.93;100.00
11487;BME280;10510;47.942;9.442;2022-07-29T09:36:16;94603.81;;;23.76;100.00
11487;BME280;10510;47.942;9.442;2022-07-29T09:38:17;94608.03;;;23.62;100.00
11487;BME280;10510;47.942;9.442;2022-07-29T09:40:19;94607.22;;;23.46;100.00
11487;BME280;10510;47.942;9.442;2022-07-29T09:42:29;94611.72;;;23.30;100.00
11487;BME280;10510;47.942;9.442;2022-07-29T09:44:48;94617.00;;;23.15;100.00
11487;BME280;10510;47.942;9.442;2022-07-29T09:47:07;94622.81;;;22.96;100.00
11487;BME280;10510;47.942;9.442;2022-07-29T09:49:09;94616.84;;;22.79;100.00
11487;BME280;10510;47.942;9.442;2022-07-29T09:51:20;94626.66;;;22.68;100.00
11487;BME280;10510;47.942;9.442;2022-07-29T09:53:37;94621.03;;;22.64;100.00
11487;BME280;10510;47.942;9.442;2022-07-29T09:55:50;94617.28;;;22.60;100.00
11487;BME280;10510;47.942;9.442;2022-07-29T09:57:50;94615.44;;;22.61;100.00
11487;BME280;10510;47.942;9.442;2022-07-29T10:00:18;94614.06;;;22.53;100.00
11487;BME280;10510;47.942;9.442;2022-07-29T10:02:19;94625.28;;;22.60;100.00
11487;BME280;10510;47.942;9.442;2022-07-29T10:04:20;94619.44;;;22.63;100.00
11487;BME280;10510;47.942;9.442;2022-07-29T10:06:20;94618.88;;;22.61;100.00
11487;BME280;10510;47.942;9.442;2022-07-29T10:08:25;94619.16;;;22.60;100.00
11487;BME280;10510;47.942;9.442;2022-07-29T10:10:31;94618.06;;;22.56;100.00
11487;BME280;10510;47.942;9.442;2022-07-29T10:12:32;94613.03;;;22.64;100.00
11487;BME280;10510;47.942;9.442;2022-07-29T10:14:32;94607.72;;;22.64;100.00
11487;BME280;10510;47.942;9.442;2022-07-29T10:16:33;94609.31;;;22.60;100.00
11487;BME280;10510;47.942;9.442;2022-07-29T10:18:34;94608.00;;;22.63;100.00
11487;BME280;10510;47.942;9.442;2022-07-29T10:20:35;94606.41;;;22.62;100.00
11487;BME280;10510;47.942;9.442;2022-07-29T10:22:36;94595.97;;;22.55;100.00
11487;BME280;10510;47.942;9.442;2022-07-29T10:24:38;94610.34;;;22.54;100.00
11487;BME280;10510;47.942;9.442;2022-07-29T10:26:38;94594.38;;;22.54;100.00
11487;BME280;10510;47.942;9.442;2022-07-29T10:28:40;94607.59;;;22.44;100.00
11487;BME280;10510;47.942;9.442;2022-07-29T10:30:41;94608.63;;;22.38;100.00
11487;BME280;10510;47.942;9.442;2022-07-29T10:32:54;94614.75;;;22.33;100.00
11487;BME280;10510;47.942;9.442;2022-07-29T10:35:08;94609.66;;;22.32;100.00
11487;BME280;10510;47.942;9.442;2022-07-29T10:37:20;94617.09;;;22.25;100.00
11487;BME280;10510;47.942;9.442;2022-07-29T10:39:51;94624.06;;;21.98;100.00
11487;BME280;10510;47.942;9.442;2022-07-29T10:44:12;94620.69;;;21.76;100.00
11487;BME280;10510;47.942;9.442;2022-07-29T10:46:12;94620.66;;;21.71;100.00
11487;BME280;10510;47.942;9.442;2022-07-29T10:48:14;94613.94;;;21.63;100.00
11487;BME280;10510;47.942;9.442;2022-07-29T10:50:14;94616.81;;;21.57;100.00
11487;BME280;10510;47.942;9.442;2022-07-29T10:52:15;94610.88;;;21.49;100.00